sensor_id;sensor_type;location;lat;lon;timestamp;temperature;humidity
42715;DHT22;28351;51.480;5.706;2024-03-02T00:00:10;9.00;99.90
42715;DHT22;28351;51.480;5.706;2024-03-02T00:02:44;9.00;99.90
42715;DHT22;28351;51.480;5.706;2024-03-02T00:05:14;9.00;99.90
42715;DHT22;28351;51.480;5.706;2024-03-02T00:07:41;9.10;99.90
42715;DHT22;28351;51.480;5.706;2024-03-02T00:10:07;9.10;99.90
42715;DHT22;28351;51.480;5.706;2024-03-02T00:12:33;9.10;99.90
42715;DHT22;28351;51.480;5.706;2024-03-02T00:14:59;9.00;99.90
42715;DHT22;28351;51.480;5.706;2024-03-02T00:17:27;9.20;99.90
42715;DHT22;28351;51.480;5.706;2024-03-02T00:19:54;9.20;99.90
42715;DHT22;28351;51.480;5.706;2024-03-02T00:22:20;9.30;99.90
42715;DHT22;28351;51.480;5.706;2024-03-02T00:24:45;9.40;99.90
42715;DHT22;28351;51.480;5.706;2024-03-02T00:27:12;9.40;99.90
42715;DHT22;28351;51.480;5.706;2024-03-02T00:29:40;9.40;99.90
42715;DHT22;28351;51.480;5.706;2024-03-02T00:32:10;9.40;99.90
42715;DHT22;28351;51.480;5.706;2024-03-02T00:34:37;9.40;99.90
42715;DHT22;28351;51.480;5.706;2024-03-02T00:37:03;9.40;99.90
42715;DHT22;28351;51.480;5.706;2024-03-02T00:39:28;9.40;99.90
42715;DHT22;28351;51.480;5.706;2024-03-02T00:41:54;9.40;99.90
42715;DHT22;28351;51.480;5.706;2024-03-02T00:44:20;9.30;99.90
42715;DHT22;28351;51.480;5.706;2024-03-02T00:46:52;9.10;99.90
42715;DHT22;28351;51.480;5.706;2024-03-02T00:49:20;8.80;99.90
42715;DHT22;28351;51.480;5.706;2024-03-02T00:51:47;8.60;99.90
42715;DHT22;28351;51.480;5.706;2024-03-02T00:54:14;8.50;99.90
42715;DHT22;28351;51.480;5.706;2024-03-02T00:56:40;8.40;99.90
42715;DHT22;28351;51.480;5.706;2024-03-02T00:59:06;8.40;99.90
42715;DHT22;28351;51.480;5.706;2024-03-02T01:01:32;8.30;99.90
42715;DHT22;28351;51.480;5.706;2024-03-02T01:03:58;8.30;99.90
42715;DHT22;28351;51.480;5.706;2024-03-02T01:06:24;8.20;99.90
42715;DHT22;28351;51.480;5.706;2024-03-02T01:08:49;8.20;99.90
42715;DHT22;28351;51.480;5.706;2024-03-02T01:11:16;8.10;99.90
42715;DHT22;28351;51.480;5.706;2024-03-02T01:13:43;8.10;99.90
42715;DHT22;28351;51.480;5.706;2024-03-02T01:16:09;7.90;99.90
42715;DHT22;28351;51.480;5.706;2024-03-02T01:18:34;7.90;99.90
42715;DHT22;28351;51.480;5.706;2024-03-02T01:21:00;7.80;99.90
42715;DHT22;28351;51.480;5.706;2024-03-02T01:23:25;7.80;99.90
42715;DHT22;28351;51.480;5.706;2024-03-02T01:25:51;7.80;99.90
42715;DHT22;28351;51.480;5.706;2024-03-02T01:28:17;7.80;99.90
42715;DHT22;28351;51.480;5.706;2024-03-02T01:30:43;7.80;99.90
42715;DHT22;28351;51.480;5.706;2024-03-02T01:33:09;7.90;99.90
42715;DHT22;28351;51.480;5.706;2024-03-02T01:35:35;7.90;99.90
42715;DHT22;28351;51.480;5.706;2024-03-02T01:38:00;7.90;99.90
42715;DHT22;28351;51.480;5.706;2024-03-02T01:40:26;7.90;99.90
42715;DHT22;28351;51.480;5.706;2024-03-02T01:42:52;7.90;99.90
42715;DHT22;28351;51.480;5.706;2024-03-02T01:45:18;7.90;99.90
42715;DHT22;28351;51.480;5.706;2024-03-02T01:47:44;7.90;99.90
42715;DHT22;28351;51.480;5.706;2024-03-02T01:50:11;7.80;99.90
42715;DHT22;28351;51.480;5.706;2024-03-02T01:52:36;7.80;99.90
42715;DHT22;28351;51.480;5.706;2024-03-02T01:55:19;7.80;99.90
42715;DHT22;28351;51.480;5.706;2024-03-02T01:57:44;7.80;99.90
42715;DHT22;28351;51.480;5.706;2024-03-02T02:00:10;7.80;99.90
42715;DHT22;28351;51.480;5.706;2024-03-02T02:02:36;7.80;99.90
42715;DHT22;28351;51.480;5.706;2024-03-02T02:05:02;7.80;99.90
42715;DHT22;28351;51.480;5.706;2024-03-02T02:07:27;7.80;99.90
42715;DHT22;28351;51.480;5.706;2024-03-02T02:09:53;7.80;99.90
42715;DHT22;28351;51.480;5.706;2024-03-02T02:12:18;7.80;99.90
42715;DHT22;28351;51.480;5.706;2024-03-02T02:14:48;7.80;99.90
42715;DHT22;28351;51.480;5.706;2024-03-02T02:17:17;7.80;99.90
42715;DHT22;28351;51.480;5.706;2024-03-02T02:19:42;7.70;99.90
42715;DHT22;28351;51.480;5.706;2024-03-02T02:22:09;7.70;99.90
42715;DHT22;28351;51.480;5.706;2024-03-02T02:24:34;7.70;99.90
42715;DHT22;28351;51.480;5.706;2024-03-02T02:27:00;7.70;99.90
42715;DHT22;28351;51.480;5.706;2024-03-02T02:29:25;7.60;99.90
42715;DHT22;28351;51.480;5.706;2024-03-02T02:31:52;7.60;99.90
42715;DHT22;28351;51.480;5.706;2024-03-02T02:34:17;7.50;99.90
42715;DHT22;28351;51.480;5.706;2024-03-02T02:36:43;7.50;99.90
42715;DHT22;28351;51.480;5.706;2024-03-02T02:39:10;7.60;99.90
42715;DHT22;28351;51.480;5.706;2024-03-02T02:41:37;7.50;99.90
42715;DHT22;28351;51.480;5.706;2024-03-02T02:44:03;7.50;99.90
42715;DHT22;28351;51.480;5.706;2024-03-02T02:46:29;7.50;99.90
42715;DHT22;28351;51.480;5.706;2024-03-02T02:48:55;7.50;99.90
42715;DHT22;28351;51.480;5.706;2024-03-02T02:51:20;7.50;99.90
42715;DHT22;28351;51.480;5.706;2024-03-02T02:53:46;7.50;99.90
42715;DHT22;28351;51.480;5.706;2024-03-02T02:56:11;7.60;99.90
42715;DHT22;28351;51.480;5.706;2024-03-02T02:58:37;7.60;99.90
42715;DHT22;28351;51.480;5.706;2024-03-02T03:01:03;7.60;99.90
42715;DHT22;28351;51.480;5.706;2024-03-02T03:03:29;7.60;99.90
42715;DHT22;28351;51.480;5.706;2024-03-02T03:05:54;7.60;99.90
42715;DHT22;28351;51.480;5.706;2024-03-02T03:08:20;7.60;99.90
42715;DHT22;28351;51.480;5.706;2024-03-02T03:10:45;7.60;99.90
42715;DHT22;28351;51.480;5.706;2024-03-02T03:13:11;7.60;99.90
42715;DHT22;28351;51.480;5.706;2024-03-02T03:15:37;7.60;99.90
42715;DHT22;28351;51.480;5.706;2024-03-02T03:18:05;7.50;99.90
42715;DHT22;28351;51.480;5.706;2024-03-02T03:20:33;7.50;99.90
42715;DHT22;28351;51.480;5.706;2024-03-02T03:22:59;7.50;99.90
42715;DHT22;28351;51.480;5.706;2024-03-02T03:25:25;7.60;99.90
42715;DHT22;28351;51.480;5.706;2024-03-02T03:27:50;7.60;99.90
42715;DHT22;28351;51.480;5.706;2024-03-02T03:30:18;7.60;99.90
42715;DHT22;28351;51.480;5.706;2024-03-02T03:32:45;7.60;99.90
42715;DHT22;28351;51.480;5.706;2024-03-02T03:35:10;7.60;99.90
42715;DHT22;28351;51.480;5.706;2024-03-02T03:37:38;7.60;99.90
42715;DHT22;28351;51.480;5.706;2024-03-02T03:40:03;7.60;99.90
42715;DHT22;28351;51.480;5.706;2024-03-02T03:42:35;7.50;99.90
42715;DHT22;28351;51.480;5.706;2024-03-02T03:45:01;7.60;99.90
42715;DHT22;28351;51.480;5.706;2024-03-02T03:47:26;7.60;99.90
42715;DHT22;28351;51.480;5.706;2024-03-02T03:49:52;7.60;99.90
42715;DHT22;28351;51.480;5.706;2024-03-02T03:52:17;7.60;99.90
42715;DHT22;28351;51.480;5.706;2024-03-02T03:54:43;7.60;99.90
42715;DHT22;28351;51.480;5.706;2024-03-02T03:57:09;7.60;99.90
42715;DHT22;28351;51.480;5.706;2024-03-02T03:59:35;7.60;99.90
42715;DHT22;28351;51.480;5.706;2024-03-02T04:02:03;7.60;99.90
42715;DHT22;28351;51.480;5.706;2024-03-02T04:04:28;7.50;99.90
42715;DHT22;28351;51.480;5.706;2024-03-02T04:06:54;7.50;99.90
42715;DHT22;28351;51.480;5.706;2024-03-02T04:09:19;7.50;99.90
42715;DHT22;28351;51.480;5.706;2024-03-02T04:11:45;7.40;99.90
42715;DHT22;28351;51.480;5.706;2024-03-02T04:14:11;7.40;99.90
42715;DHT22;28351;51.480;5.706;2024-03-02T04:16:37;7.40;99.90
42715;DHT22;28351;51.480;5.706;2024-03-02T04:19:03;7.40;99.90
42715;DHT22;28351;51.480;5.706;2024-03-02T04:21:29;7.40;99.90
42715;DHT22;28351;51.480;5.706;2024-03-02T04:23:54;7.40;99.90
42715;DHT22;28351;51.480;5.706;2024-03-02T04:26:23;7.30;99.90
42715;DHT22;28351;51.480;5.706;2024-03-02T04:28:50;7.20;99.90
42715;DHT22;28351;51.480;5.706;2024-03-02T04:31:16;7.20;99.90
42715;DHT22;28351;51.480;5.706;2024-03-02T04:33:42;7.10;99.90
42715;DHT22;28351;51.480;5.706;2024-03-02T04:36:07;7.00;99.90
42715;DHT22;28351;51.480;5.706;2024-03-02T04:38:39;7.00;99.90
42715;DHT22;28351;51.480;5.706;2024-03-02T04:41:22;6.90;99.90
42715;DHT22;28351;51.480;5.706;2024-03-02T04:43:47;6.90;99.90
42715;DHT22;28351;51.480;5.706;2024-03-02T04:46:13;6.90;99.90
42715;DHT22;28351;51.480;5.706;2024-03-02T04:48:39;6.90;99.90
42715;DHT22;28351;51.480;5.706;2024-03-02T04:51:05;6.90;99.90
42715;DHT22;28351;51.480;5.706;2024-03-02T04:53:30;6.90;99.90
42715;DHT22;28351;51.480;5.706;2024-03-02T04:55:56;6.90;99.90
42715;DHT22;28351;51.480;5.706;2024-03-02T04:58:40;6.90;99.90
42715;DHT22;28351;51.480;5.706;2024-03-02T05:01:05;6.90;99.90
42715;DHT22;28351;51.480;5.706;2024-03-02T05:03:31;6.90;99.90
42715;DHT22;28351;51.480;5.706;2024-03-02T05:06:00;6.90;99.90
42715;DHT22;28351;51.480;5.706;2024-03-02T05:08:26;6.90;99.90
42715;DHT22;28351;51.480;5.706;2024-03-02T05:10:52;6.90;99.90
42715;DHT22;28351;51.480;5.706;2024-03-02T05:13:17;7.00;99.90
42715;DHT22;28351;51.480;5.706;2024-03-02T05:15:43;7.00;99.90
42715;DHT22;28351;51.480;5.706;2024-03-02T05:18:09;7.00;99.90
42715;DHT22;28351;51.480;5.706;2024-03-02T05:20:34;7.00;99.90
42715;DHT22;28351;51.480;5.706;2024-03-02T05:23:00;6.90;99.90
42715;DHT22;28351;51.480;5.706;2024-03-02T05:25:25;6.90;99.90
42715;DHT22;28351;51.480;5.706;2024-03-02T05:27:51;6.80;99.90
42715;DHT22;28351;51.480;5.706;2024-03-02T05:30:16;6.70;99.90
42715;DHT22;28351;51.480;5.706;2024-03-02T05:32:42;6.60;99.90
42715;DHT22;28351;51.480;5.706;2024-03-02T05:35:07;6.50;99.90
42715;DHT22;28351;51.480;5.706;2024-03-02T05:37:35;6.40;99.90
42715;DHT22;28351;51.480;5.706;2024-03-02T05:40:00;6.30;99.90
42715;DHT22;28351;51.480;5.706;2024-03-02T05:42:26;6.30;99.90
42715;DHT22;28351;51.480;5.706;2024-03-02T05:44:52;6.30;99.90
42715;DHT22;28351;51.480;5.706;2024-03-02T05:47:18;6.40;99.90
42715;DHT22;28351;51.480;5.706;2024-03-02T05:49:44;6.40;99.90
42715;DHT22;28351;51.480;5.706;2024-03-02T05:52:09;6.50;99.90
42715;DHT22;28351;51.480;5.706;2024-03-02T05:54:36;6.50;99.90
42715;DHT22;28351;51.480;5.706;2024-03-02T05:57:02;6.60;99.90
42715;DHT22;28351;51.480;5.706;2024-03-02T05:59:42;6.70;99.90
42715;DHT22;28351;51.480;5.706;2024-03-02T06:02:08;6.70;99.90
42715;DHT22;28351;51.480;5.706;2024-03-02T06:04:34;6.70;99.90
42715;DHT22;28351;51.480;5.706;2024-03-02T06:06:59;6.80;99.90
42715;DHT22;28351;51.480;5.706;2024-03-02T06:09:25;6.70;99.90
42715;DHT22;28351;51.480;5.706;2024-03-02T06:11:53;6.70;99.90
42715;DHT22;28351;51.480;5.706;2024-03-02T06:14:18;6.70;99.90
42715;DHT22;28351;51.480;5.706;2024-03-02T06:16:44;6.70;99.90
42715;DHT22;28351;51.480;5.706;2024-03-02T06:19:09;6.70;99.90
42715;DHT22;28351;51.480;5.706;2024-03-02T06:21:35;6.80;99.90
42715;DHT22;28351;51.480;5.706;2024-03-02T06:24:00;6.70;99.90
42715;DHT22;28351;51.480;5.706;2024-03-02T06:28:58;6.80;99.90
42715;DHT22;28351;51.480;5.706;2024-03-02T06:31:23;6.60;99.90
42715;DHT22;28351;51.480;5.706;2024-03-02T06:33:49;6.50;99.90
42715;DHT22;28351;51.480;5.706;2024-03-02T06:36:14;6.40;99.90
42715;DHT22;28351;51.480;5.706;2024-03-02T06:38:40;6.30;99.90
42715;DHT22;28351;51.480;5.706;2024-03-02T06:41:06;6.30;99.90
42715;DHT22;28351;51.480;5.706;2024-03-02T06:43:35;6.30;99.90
42715;DHT22;28351;51.480;5.706;2024-03-02T06:46:00;6.30;99.90
42715;DHT22;28351;51.480;5.706;2024-03-02T06:48:26;6.20;99.90
42715;DHT22;28351;51.480;5.706;2024-03-02T06:50:54;6.30;99.90
42715;DHT22;28351;51.480;5.706;2024-03-02T06:53:21;6.30;99.90
42715;DHT22;28351;51.480;5.706;2024-03-02T06:55:47;6.20;99.90
42715;DHT22;28351;51.480;5.706;2024-03-02T06:58:14;6.30;99.90
42715;DHT22;28351;51.480;5.706;2024-03-02T07:00:41;6.30;99.90
42715;DHT22;28351;51.480;5.706;2024-03-02T07:03:07;6.30;99.90
42715;DHT22;28351;51.480;5.706;2024-03-02T07:05:32;6.40;99.90
42715;DHT22;28351;51.480;5.706;2024-03-02T07:07:58;6.40;99.90
42715;DHT22;28351;51.480;5.706;2024-03-02T07:10:24;6.40;99.90
42715;DHT22;28351;51.480;5.706;2024-03-02T07:12:52;6.50;99.90
42715;DHT22;28351;51.480;5.706;2024-03-02T07:15:18;6.50;99.90
42715;DHT22;28351;51.480;5.706;2024-03-02T07:17:55;6.50;99.90
42715;DHT22;28351;51.480;5.706;2024-03-02T07:20:23;6.70;99.90
42715;DHT22;28351;51.480;5.706;2024-03-02T07:22:49;6.80;99.90
42715;DHT22;28351;51.480;5.706;2024-03-02T07:25:15;6.90;99.90
42715;DHT22;28351;51.480;5.706;2024-03-02T07:27:40;7.00;99.90
42715;DHT22;28351;51.480;5.706;2024-03-02T07:30:06;7.20;99.90
42715;DHT22;28351;51.480;5.706;2024-03-02T07:32:32;7.30;99.90
42715;DHT22;28351;51.480;5.706;2024-03-02T07:35:03;7.40;99.90
42715;DHT22;28351;51.480;5.706;2024-03-02T07:37:29;7.50;99.90
42715;DHT22;28351;51.480;5.706;2024-03-02T07:39:54;7.60;99.90
42715;DHT22;28351;51.480;5.706;2024-03-02T07:42:20;7.70;99.90
42715;DHT22;28351;51.480;5.706;2024-03-02T07:44:46;7.80;99.90
42715;DHT22;28351;51.480;5.706;2024-03-02T07:47:11;7.80;99.90
42715;DHT22;28351;51.480;5.706;2024-03-02T07:49:37;7.80;99.90
42715;DHT22;28351;51.480;5.706;2024-03-02T07:52:09;7.80;99.90
42715;DHT22;28351;51.480;5.706;2024-03-02T07:54:34;7.90;99.90
42715;DHT22;28351;51.480;5.706;2024-03-02T07:57:00;7.90;99.90
42715;DHT22;28351;51.480;5.706;2024-03-02T07:59:27;8.00;99.90
42715;DHT22;28351;51.480;5.706;2024-03-02T08:01:52;7.90;99.90
42715;DHT22;28351;51.480;5.706;2024-03-02T08:04:20;7.80;99.90
42715;DHT22;28351;51.480;5.706;2024-03-02T08:06:46;7.80;99.90
42715;DHT22;28351;51.480;5.706;2024-03-02T08:09:12;7.80;99.90
42715;DHT22;28351;51.480;5.706;2024-03-02T08:11:37;7.80;99.90
42715;DHT22;28351;51.480;5.706;2024-03-02T08:14:04;7.80;99.90
42715;DHT22;28351;51.480;5.706;2024-03-02T08:16:29;7.80;99.90
42715;DHT22;28351;51.480;5.706;2024-03-02T08:18:55;7.80;99.90
42715;DHT22;28351;51.480;5.706;2024-03-02T08:21:23;7.70;99.90
42715;DHT22;28351;51.480;5.706;2024-03-02T08:23:52;7.70;99.90
42715;DHT22;28351;51.480;5.706;2024-03-02T08:26:20;7.70;99.90
42715;DHT22;28351;51.480;5.706;2024-03-02T08:28:46;7.80;99.90
42715;DHT22;28351;51.480;5.706;2024-03-02T08:31:12;7.80;99.90
42715;DHT22;28351;51.480;5.706;2024-03-02T08:33:37;7.80;99.90
42715;DHT22;28351;51.480;5.706;2024-03-02T08:36:03;7.80;99.90
42715;DHT22;28351;51.480;5.706;2024-03-02T08:38:28;7.90;99.90
42715;DHT22;28351;51.480;5.706;2024-03-02T08:40:55;8.00;99.90
42715;DHT22;28351;51.480;5.706;2024-03-02T08:43:21;8.00;99.90
42715;DHT22;28351;51.480;5.706;2024-03-02T08:45:48;8.10;99.90
42715;DHT22;28351;51.480;5.706;2024-03-02T08:48:13;8.10;99.90
42715;DHT22;28351;51.480;5.706;2024-03-02T08:50:39;8.20;99.90
42715;DHT22;28351;51.480;5.706;2024-03-02T08:55:35;8.30;99.90
42715;DHT22;28351;51.480;5.706;2024-03-02T08:58:00;8.30;99.90
42715;DHT22;28351;51.480;5.706;2024-03-02T09:00:26;8.40;99.90
42715;DHT22;28351;51.480;5.706;2024-03-02T09:02:51;8.40;99.90
42715;DHT22;28351;51.480;5.706;2024-03-02T09:05:17;8.50;99.90
42715;DHT22;28351;51.480;5.706;2024-03-02T09:07:42;8.60;99.90
42715;DHT22;28351;51.480;5.706;2024-03-02T09:10:08;8.60;99.90
42715;DHT22;28351;51.480;5.706;2024-03-02T09:12:35;8.70;99.90
42715;DHT22;28351;51.480;5.706;2024-03-02T09:15:01;8.70;99.90
42715;DHT22;28351;51.480;5.706;2024-03-02T09:17:27;8.90;99.90
42715;DHT22;28351;51.480;5.706;2024-03-02T09:19:52;9.00;99.90
42715;DHT22;28351;51.480;5.706;2024-03-02T09:22:18;9.20;99.90
42715;DHT22;28351;51.480;5.706;2024-03-02T09:24:44;9.20;99.90
42715;DHT22;28351;51.480;5.706;2024-03-02T09:27:10;9.30;99.90
42715;DHT22;28351;51.480;5.706;2024-03-02T09:29:35;9.30;99.90
42715;DHT22;28351;51.480;5.706;2024-03-02T09:32:01;9.40;99.90
42715;DHT22;28351;51.480;5.706;2024-03-02T09:34:28;9.50;99.90
42715;DHT22;28351;51.480;5.706;2024-03-02T09:36:53;9.50;99.90
42715;DHT22;28351;51.480;5.706;2024-03-02T09:39:19;9.50;99.90
42715;DHT22;28351;51.480;5.706;2024-03-02T09:41:45;9.60;99.90
42715;DHT22;28351;51.480;5.706;2024-03-02T09:44:10;9.60;99.90
42715;DHT22;28351;51.480;5.706;2024-03-02T09:46:36;9.60;99.90
42715;DHT22;28351;51.480;5.706;2024-03-02T09:49:04;9.60;99.90
42715;DHT22;28351;51.480;5.706;2024-03-02T09:51:33;9.80;99.90
42715;DHT22;28351;51.480;5.706;2024-03-02T09:53:58;9.90;99.90
42715;DHT22;28351;51.480;5.706;2024-03-02T09:56:26;9.90;99.90
42715;DHT22;28351;51.480;5.706;2024-03-02T09:58:51;10.00;99.90
42715;DHT22;28351;51.480;5.706;2024-03-02T10:01:17;10.00;99.90
42715;DHT22;28351;51.480;5.706;2024-03-02T10:03:43;10.00;99.90
42715;DHT22;28351;51.480;5.706;2024-03-02T10:08:44;10.20;99.90
42715;DHT22;28351;51.480;5.706;2024-03-02T10:11:09;10.30;99.90
42715;DHT22;28351;51.480;5.706;2024-03-02T10:13:37;10.40;99.90
42715;DHT22;28351;51.480;5.706;2024-03-02T10:16:11;10.40;99.90
42715;DHT22;28351;51.480;5.706;2024-03-02T10:18:37;10.40;99.90
42715;DHT22;28351;51.480;5.706;2024-03-02T10:21:36;10.60;99.90
42715;DHT22;28351;51.480;5.706;2024-03-02T10:24:06;10.60;99.90
42715;DHT22;28351;51.480;5.706;2024-03-02T10:26:32;10.60;99.90
42715;DHT22;28351;51.480;5.706;2024-03-02T10:28:57;10.50;99.90
42715;DHT22;28351;51.480;5.706;2024-03-02T10:31:25;10.60;99.90
42715;DHT22;28351;51.480;5.706;2024-03-02T10:33:57;10.80;99.90
42715;DHT22;28351;51.480;5.706;2024-03-02T10:36:23;10.90;99.90
42715;DHT22;28351;51.480;5.706;2024-03-02T10:38:49;11.00;99.90
42715;DHT22;28351;51.480;5.706;2024-03-02T10:41:18;11.00;99.90
42715;DHT22;28351;51.480;5.706;2024-03-02T10:43:44;11.00;99.90
42715;DHT22;28351;51.480;5.706;2024-03-02T10:46:10;11.20;99.90
42715;DHT22;28351;51.480;5.706;2024-03-02T10:48:36;11.30;99.90
42715;DHT22;28351;51.480;5.706;2024-03-02T10:51:02;11.40;99.90
42715;DHT22;28351;51.480;5.706;2024-03-02T10:53:27;11.50;99.90
42715;DHT22;28351;51.480;5.706;2024-03-02T10:55:55;11.60;99.90
42715;DHT22;28351;51.480;5.706;2024-03-02T10:58:22;11.50;99.50
42715;DHT22;28351;51.480;5.706;2024-03-02T11:00:49;11.60;98.80
42715;DHT22;28351;51.480;5.706;2024-03-02T11:03:15;11.60;99.10
42715;DHT22;28351;51.480;5.706;2024-03-02T11:05:43;11.70;98.70
42715;DHT22;28351;51.480;5.706;2024-03-02T11:08:12;11.80;98.50
42715;DHT22;28351;51.480;5.706;2024-03-02T11:10:41;11.90;98.30
42715;DHT22;28351;51.480;5.706;2024-03-02T11:13:11;11.90;98.80
42715;DHT22;28351;51.480;5.706;2024-03-02T11:15:37;12.00;98.60
42715;DHT22;28351;51.480;5.706;2024-03-02T11:18:05;12.20;99.40
42715;DHT22;28351;51.480;5.706;2024-03-02T11:20:37;12.30;98.50
42715;DHT22;28351;51.480;5.706;2024-03-02T11:23:10;12.40;98.00
42715;DHT22;28351;51.480;5.706;2024-03-02T11:25:35;12.50;97.30
42715;DHT22;28351;51.480;5.706;2024-03-02T11:28:06;12.70;97.40
42715;DHT22;28351;51.480;5.706;2024-03-02T11:32:57;13.60;97.80
42715;DHT22;28351;51.480;5.706;2024-03-02T11:35:26;13.80;96.80
42715;DHT22;28351;51.480;5.706;2024-03-02T11:37:54;14.10;96.70
42715;DHT22;28351;51.480;5.706;2024-03-02T11:40:24;14.70;95.70
42715;DHT22;28351;51.480;5.706;2024-03-02T11:42:59;15.50;95.20
42715;DHT22;28351;51.480;5.706;2024-03-02T11:45:28;15.80;94.10
42715;DHT22;28351;51.480;5.706;2024-03-02T11:47:54;16.40;93.40
42715;DHT22;28351;51.480;5.706;2024-03-02T11:50:36;16.90;92.70
42715;DHT22;28351;51.480;5.706;2024-03-02T11:53:05;17.40;92.00
42715;DHT22;28351;51.480;5.706;2024-03-02T11:55:31;17.50;91.20
42715;DHT22;28351;51.480;5.706;2024-03-02T11:58:01;18.70;90.50
42715;DHT22;28351;51.480;5.706;2024-03-02T12:00:27;19.00;89.70
42715;DHT22;28351;51.480;5.706;2024-03-02T12:03:02;19.00;88.20
42715;DHT22;28351;51.480;5.706;2024-03-02T12:05:28;19.00;88.30
42715;DHT22;28351;51.480;5.706;2024-03-02T12:07:57;18.90;86.70
42715;DHT22;28351;51.480;5.706;2024-03-02T12:10:23;18.90;85.30
42715;DHT22;28351;51.480;5.706;2024-03-02T12:13:10;18.50;87.60
42715;DHT22;28351;51.480;5.706;2024-03-02T12:15:37;18.40;87.50
42715;DHT22;28351;51.480;5.706;2024-03-02T12:18:03;19.30;88.30
42715;DHT22;28351;51.480;5.706;2024-03-02T12:20:29;19.20;83.50
42715;DHT22;28351;51.480;5.706;2024-03-02T12:22:56;19.20;86.60
42715;DHT22;28351;51.480;5.706;2024-03-02T12:25:23;19.60;84.70
42715;DHT22;28351;51.480;5.706;2024-03-02T12:27:49;18.20;86.50
42715;DHT22;28351;51.480;5.706;2024-03-02T12:30:16;18.20;88.50
42715;DHT22;28351;51.480;5.706;2024-03-02T12:32:41;18.80;86.20
42715;DHT22;28351;51.480;5.706;2024-03-02T12:35:07;18.50;86.60
42715;DHT22;28351;51.480;5.706;2024-03-02T12:37:33;18.10;87.10
42715;DHT22;28351;51.480;5.706;2024-03-02T12:40:00;18.80;85.00
42715;DHT22;28351;51.480;5.706;2024-03-02T12:42:26;19.20;85.90
42715;DHT22;28351;51.480;5.706;2024-03-02T12:44:52;19.40;85.10
42715;DHT22;28351;51.480;5.706;2024-03-02T12:47:20;19.60;84.80
42715;DHT22;28351;51.480;5.706;2024-03-02T12:49:45;20.70;83.90
42715;DHT22;28351;51.480;5.706;2024-03-02T12:52:14;21.50;82.20
42715;DHT22;28351;51.480;5.706;2024-03-02T12:54:39;22.00;84.00
42715;DHT22;28351;51.480;5.706;2024-03-02T12:57:05;22.00;82.00
42715;DHT22;28351;51.480;5.706;2024-03-02T12:59:30;21.00;80.30
42715;DHT22;28351;51.480;5.706;2024-03-02T13:01:56;19.30;83.00
42715;DHT22;28351;51.480;5.706;2024-03-02T13:04:27;17.90;86.20
42715;DHT22;28351;51.480;5.706;2024-03-02T13:06:54;17.20;87.70
42715;DHT22;28351;51.480;5.706;2024-03-02T13:09:21;16.70;90.00
42715;DHT22;28351;51.480;5.706;2024-03-02T13:11:46;16.50;88.50
42715;DHT22;28351;51.480;5.706;2024-03-02T13:14:12;16.30;90.00
42715;DHT22;28351;51.480;5.706;2024-03-02T13:16:41;16.90;88.90
42715;DHT22;28351;51.480;5.706;2024-03-02T13:19:13;17.60;86.90
42715;DHT22;28351;51.480;5.706;2024-03-02T13:21:38;17.70;86.70
42715;DHT22;28351;51.480;5.706;2024-03-02T13:24:04;18.10;87.20
42715;DHT22;28351;51.480;5.706;2024-03-02T13:26:30;18.60;86.10
42715;DHT22;28351;51.480;5.706;2024-03-02T13:28:56;20.30;83.00
42715;DHT22;28351;51.480;5.706;2024-03-02T13:31:21;20.50;81.60
42715;DHT22;28351;51.480;5.706;2024-03-02T13:33:47;21.10;80.70
42715;DHT22;28351;51.480;5.706;2024-03-02T13:36:13;21.30;80.30
42715;DHT22;28351;51.480;5.706;2024-03-02T13:38:38;22.40;79.40
42715;DHT22;28351;51.480;5.706;2024-03-02T13:41:04;23.30;77.80
42715;DHT22;28351;51.480;5.706;2024-03-02T13:43:29;23.40;77.80
42715;DHT22;28351;51.480;5.706;2024-03-02T13:46:01;23.80;76.90
42715;DHT22;28351;51.480;5.706;2024-03-02T13:48:27;25.30;77.00
42715;DHT22;28351;51.480;5.706;2024-03-02T13:50:52;24.90;74.70
42715;DHT22;28351;51.480;5.706;2024-03-02T13:53:18;22.90;75.30
42715;DHT22;28351;51.480;5.706;2024-03-02T13:55:44;20.60;79.90
42715;DHT22;28351;51.480;5.706;2024-03-02T13:58:09;19.40;81.60
42715;DHT22;28351;51.480;5.706;2024-03-02T14:00:36;17.80;83.40
42715;DHT22;28351;51.480;5.706;2024-03-02T14:03:02;17.40;85.70
42715;DHT22;28351;51.480;5.706;2024-03-02T14:05:28;19.10;85.30
42715;DHT22;28351;51.480;5.706;2024-03-02T14:07:54;20.60;81.80
42715;DHT22;28351;51.480;5.706;2024-03-02T14:10:19;19.90;79.60
42715;DHT22;28351;51.480;5.706;2024-03-02T14:12:48;18.00;83.60
42715;DHT22;28351;51.480;5.706;2024-03-02T14:15:13;18.50;84.80
42715;DHT22;28351;51.480;5.706;2024-03-02T14:17:39;20.00;83.30
42715;DHT22;28351;51.480;5.706;2024-03-02T14:20:04;20.40;82.00
42715;DHT22;28351;51.480;5.706;2024-03-02T14:22:31;21.40;80.00
42715;DHT22;28351;51.480;5.706;2024-03-02T14:24:56;21.10;79.20
42715;DHT22;28351;51.480;5.706;2024-03-02T14:27:22;20.60;81.20
42715;DHT22;28351;51.480;5.706;2024-03-02T14:29:47;21.20;80.10
42715;DHT22;28351;51.480;5.706;2024-03-02T14:32:13;21.70;79.00
42715;DHT22;28351;51.480;5.706;2024-03-02T14:34:39;22.60;78.20
42715;DHT22;28351;51.480;5.706;2024-03-02T14:37:04;21.50;78.40
42715;DHT22;28351;51.480;5.706;2024-03-02T14:39:30;19.70;81.10
42715;DHT22;28351;51.480;5.706;2024-03-02T14:42:00;18.80;84.40
42715;DHT22;28351;51.480;5.706;2024-03-02T14:44:25;18.00;85.40
42715;DHT22;28351;51.480;5.706;2024-03-02T14:46:51;17.30;87.70
42715;DHT22;28351;51.480;5.706;2024-03-02T14:49:16;17.20;86.60
42715;DHT22;28351;51.480;5.706;2024-03-02T14:51:43;16.90;87.40
42715;DHT22;28351;51.480;5.706;2024-03-02T14:54:08;16.20;88.80
42715;DHT22;28351;51.480;5.706;2024-03-02T14:56:34;15.50;90.20
42715;DHT22;28351;51.480;5.706;2024-03-02T14:58:59;15.30;91.30
42715;DHT22;28351;51.480;5.706;2024-03-02T15:01:25;15.20;91.80
42715;DHT22;28351;51.480;5.706;2024-03-02T15:03:50;15.40;91.90
42715;DHT22;28351;51.480;5.706;2024-03-02T15:06:16;15.30;91.60
42715;DHT22;28351;51.480;5.706;2024-03-02T15:08:42;15.20;91.40
42715;DHT22;28351;51.480;5.706;2024-03-02T15:11:09;15.00;91.80
42715;DHT22;28351;51.480;5.706;2024-03-02T15:16:04;14.50;92.60
42715;DHT22;28351;51.480;5.706;2024-03-02T15:18:30;14.50;92.80
42715;DHT22;28351;51.480;5.706;2024-03-02T15:21:00;14.40;93.10
42715;DHT22;28351;51.480;5.706;2024-03-02T15:23:25;14.50;93.00
42715;DHT22;28351;51.480;5.706;2024-03-02T15:25:51;14.50;93.20
42715;DHT22;28351;51.480;5.706;2024-03-02T15:28:16;14.50;93.00
42715;DHT22;28351;51.480;5.706;2024-03-02T15:30:42;14.70;92.90
42715;DHT22;28351;51.480;5.706;2024-03-02T15:33:07;15.60;92.50
42715;DHT22;28351;51.480;5.706;2024-03-02T15:35:33;16.50;90.90
42715;DHT22;28351;51.480;5.706;2024-03-02T15:37:59;16.10;90.70
42715;DHT22;28351;51.480;5.706;2024-03-02T15:40:24;15.90;91.70
42715;DHT22;28351;51.480;5.706;2024-03-02T15:42:50;16.20;91.30
42715;DHT22;28351;51.480;5.706;2024-03-02T15:45:15;16.00;91.60
42715;DHT22;28351;51.480;5.706;2024-03-02T15:47:41;15.60;91.60